Flight Track Log - Related Links

Times and Time Zones

All times are in EDT time to prevent confusion due to time zone crossing. See the GGN7280 flight status page for this flight to view local times or setup timezone preferences in your user account.

Time Position Orientation Groundspeed Altitude Reporting Facility
EDT Latitude Longitude Course Direction KTS MPH feet Rate Location/Type
Thu 09:34:36 AM 43.6167 -79.6167 154° Southeast 190 219 1,900  Level Toronto Center
Thu 09:35:36 AM 43.5667 -79.5833 154° Southeast 210 242 3,000 1,000 Climbing Toronto Center
Thu 09:36:36 AM 43.5000 -79.5667 170° South 230 265 3,900 750 Climbing Toronto Center
Thu 09:37:36 AM 43.4833 -79.4667 103° East 250 288 4,500 650 Climbing Toronto Center
Thu 09:38:36 AM 43.5000 -79.3833 75° East 260 299 5,200 750 Climbing Toronto Center
Thu 09:39:36 AM 43.5000 -79.2667 90° East 260 299 6,000 800 Climbing Toronto Center
Thu 09:40:36 AM 43.5000 -79.1667 90° East 270 311 6,800 800 Climbing Toronto Center
Thu 09:41:36 AM 43.4833 -79.0667 103° East 270 311 7,600 800 Climbing Toronto Center
Thu 09:42:36 AM 43.4667 -78.9667 103° East 270 311 8,400 700 Climbing Toronto Center
Thu 09:43:36 AM 43.4667 -78.8500 90° East 280 322 9,000 300 Climbing Toronto Center
Thu 09:44:36 AM 43.4500 -78.7333 101° East 290 334 9,000  Level Toronto Center
Thu 09:45:36 AM 43.4333 -78.6500 105° East 300 345 9,000  Level Toronto Center
Thu 09:46:36 AM 43.4167 -78.5333 101° East 300 345 9,000  Level Toronto Center
Thu 09:47:35 AM 43.4139 -78.4486 93° East 291 335 9,000  Level Cleveland Center
Thu 09:48:41 AM 43.3989 -78.3175 99° East 296 341 9,000  Level Cleveland Center
Thu 09:49:42 AM 43.3861 -78.2094 99° East 293 337 9,000  Level Cleveland Center
Thu 09:50:42 AM 43.3714 -78.0986 100° East 294 338 9,000  Level Cleveland Center
Thu 09:51:37 AM 43.3586 -77.9964 100° East 295 339 9,000  Level Cleveland Center
Thu 09:52:38 AM 43.3436 -77.8828 100° East 294 338 9,000  Level Cleveland Center
Thu 09:53:38 AM 43.3286 -77.7722 101° East 296 341 9,000  Level Cleveland Center
Thu 09:54:39 AM 43.3156 -77.6642 99° East 293 337 9,000  Level Cleveland Center
Thu 09:55:40 AM 43.3022 -77.5536 99° East 293 337 9,000  Level Cleveland Center
Thu 09:56:40 AM 43.2867 -77.4403 101° East 295 339 9,000  Level Cleveland Center
Thu 09:57:41 AM 43.2731 -77.3297 100° East 294 338 9,000  Level Cleveland Center
Thu 09:58:41 AM 43.2597 -77.2219 100° East 293 337 9,000 -34 Level Cleveland Center
Thu 10:00:36 AM 43.2167 -76.9833 104° East 290 334 8,900 -34 Descending Toronto Center
Thu 10:01:36 AM 43.2000 -76.8667 101° East 290 334 8,900 30 Level Toronto Center
Thu 10:03:59 AM 43.1797 -76.6406 97° East 291 335 9,000 29 Climbing Boston Center
Thu 10:05:00 AM 43.1647 -76.5311 101° East 293 337 9,000  Level Boston Center
Thu 10:06:00 AM 43.1478 -76.4219 102° East 293 337 9,000  Level Boston Center
Thu 10:07:01 AM 43.1350 -76.3128 99° East 295 339 9,000  Level Boston Center
Thu 10:08:02 AM 43.1158 -76.2008 103° East 295 339 9,000  Level Boston Center
Thu 10:09:02 AM 43.1000 -76.1086 103° East 289 333 9,000  Level Boston Center
Thu 10:10:03 AM 43.0853 -75.9797 99° East 291 335 9,000  Level Boston Center
Thu 10:11:03 AM 43.0700 -75.8708 101° East 295 339 9,000  Level Boston Center
Thu 10:12:04 AM 43.0522 -75.7619 103° East 295 339 9,000  Level Boston Center
Thu 10:13:05 AM 43.0367 -75.6503 101° East 295 339 9,000  Level Boston Center
Thu 10:14:05 AM 43.0208 -75.5442 102° East 293 337 9,000  Level Boston Center
Thu 10:15:06 AM 43.0050 -75.4328 101° East 293 337 9,000  Level Boston Center
Thu 10:16:07 AM 42.9869 -75.3239 103° East 293 337 9,000  Level Boston Center
Thu 10:17:07 AM 42.9711 -75.2069 100° East 293 337 9,000  Level Boston Center
Thu 10:18:08 AM 42.9550 -75.0983 101° East 297 342 9,000  Level Boston Center
Thu 10:19:08 AM 42.9367 -74.9869 103° East 297 342 9,000  Level Boston Center
Thu 10:20:03 AM 42.9222 -74.8900 101° East 296 341 9,000 -52 Level Boston Center
Thu 10:21:04 AM 42.9058 -74.7758 101° East 296 341 8,900 -47 Descending Boston Center
Thu 10:22:10 AM 42.8853 -74.6561 103° East 297 342 8,900  Level Boston Center
Thu 10:23:11 AM 42.8667 -74.5419 103° East 296 341 8,900 -141 Level Boston Center
Thu 10:24:18 AM 42.8500 -74.4197 100° East 300 345 8,600 -472 Descending Boston Center
Thu 10:25:18 AM 42.8417 -74.3033 96° East 312 359 7,900 -744 Descending Boston Center
Thu 10:26:19 AM 42.8289 -74.1897 99° East 305 351 7,100 -738 Descending Boston Center
Thu 10:27:20 AM 42.8306 -74.0792 89° East 287 330 6,400 -843 Descending Boston Center
Thu 10:28:20 AM 42.8381 -73.9719 85° East 287 330 5,400 -843 Descending Boston Center
Thu 10:29:21 AM 42.8478 -73.8644 83° East 287 330 4,700 -750 Descending Boston Center
Thu 10:30:28 AM 42.8597 -73.7458 82° East 272 313 3,800 -806 Descending Boston Center

Login

Don't have an account? Register now (free) for customized features, flight alerts, and more!